Time;durP1;ratioP1;P1;durP2;ratioP2;P2;SDS_P1;SDS_P2;PMS_P1;PMS_P2;Temp;Humidity;BMP_temperature;BMP_pressure;BME280_temperature;BME280_humidity;BME280_pressure;Samples;Min_cycle;Max_cycle;Signal;HPM_P1;HPM_P2
2021/03/13 17:53:18;;;;;;;7.30;1.50;;;;;;;17.27;61.21;99641.41;6278106;22;20049;-79
2021/03/13 17:55:53;;;;;;;4.47;1.20;;;;;;;17.28;61.49;99656.09;6267330;22;20026;-79
2021/03/13 17:58:18;;;;;;;4.35;1.20;;;;;;;17.26;61.31;99654.44;6179480;23;20021;-79
2021/03/13 18:00:46;;;;;;;3.60;1.20;;;;;;;17.28;60.94;99668.25;6184395;22;19998;-79
2021/03/13 18:03:19;;;;;;;2.53;1.00;;;;;;;17.33;60.88;99670.75;6302571;22;20096;-80
2021/03/13 18:06:23;;;;;;;2.97;0.90;;;;;;;17.37;61.97;99670.59;6303343;22;19991;-79
2021/03/13 18:08:51;;;;;;;3.00;1.00;;;;;;;17.40;61.10;99675.75;6297172;22;20039;-79
2021/03/13 18:11:16;;;;;;;4.32;1.20;;;;;;;17.32;62.96;99682.91;6297433;22;20007;-79
2021/03/13 18:13:43;;;;;;;4.72;1.15;;;;;;;17.24;63.17;99698.69;6303314;22;20026;-79
2021/03/13 18:16:09;;;;;;;3.58;1.15;;;;;;;17.15;64.94;99685.94;6294482;22;20015;-79
2021/03/13 18:18:36;;;;;;;3.67;1.13;;;;;;;17.15;64.39;99700.69;6316777;22;20029;-79
2021/03/13 18:21:03;;;;;;;4.45;1.20;;;;;;;17.11;64.48;99699.03;6317551;22;20000;-79
2021/03/13 18:23:28;;;;;;;2.95;1.30;;;;;;;17.09;64.72;99700.84;6316423;22;20477;-79
2021/03/13 18:25:54;;;;;;;2.22;1.02;;;;;;;17.12;65.20;99711.16;6289971;22;19999;-79
2021/03/13 18:28:20;;;;;;;3.30;1.15;;;;;;;17.14;65.19;99706.78;6263549;22;20050;-79
2021/03/13 18:30:46;;;;;;;6.80;1.55;;;;;;;17.12;64.87;99725.00;6289459;22;20022;-79
2021/03/13 18:33:11;;;;;;;8.00;1.77;;;;;;;17.11;65.70;99723.28;6290536;22;20452;-79
2021/03/13 18:35:39;;;;;;;4.45;1.65;;;;;;;17.14;65.83;99725.81;6319564;22;20015;-79
2021/03/13 18:38:05;;;;;;;6.43;1.83;;;;;;;17.16;65.63;99728.38;6268175;22;20059;-79
2021/03/13 18:40:31;;;;;;;7.90;2.45;;;;;;;17.14;65.92;99732.78;6319775;22;20003;-79
2021/03/13 18:42:57;;;;;;;27.08;6.05;;;;;;;17.14;66.46;99728.44;6319488;22;20034;-79
2021/03/13 18:45:23;;;;;;;14.25;4.55;;;;;;;17.17;66.07;99730.94;6292009;22;19999;-79
2021/03/13 18:47:49;;;;;;;19.50;5.32;;;;;;;17.18;66.08;99747.38;6317720;22;20025;-79
2021/03/13 18:50:15;;;;;;;21.42;5.40;;;;;;;17.19;65.57;99757.75;6292840;22;19999;-79
2021/03/13 18:52:40;;;;;;;18.30;5.32;;;;;;;17.22;65.26;99757.69;6318693;22;20068;-79
2021/03/13 18:55:08;;;;;;;15.32;4.35;;;;;;;17.23;65.11;99762.00;6320098;22;20011;-79
2021/03/13 18:57:34;;;;;;;17.20;4.70;;;;;;;17.21;65.23;99768.97;6293159;22;20395;-79
2021/03/13 18:59:59;;;;;;;16.08;3.90;;;;;;;17.21;64.84;99765.53;6291531;22;19999;-79
2021/03/13 19:02:26;;;;;;;16.35;4.07;;;;;;;17.22;65.10;99775.00;6322479;22;20096;-79
2021/03/13 19:04:51;;;;;;;21.25;4.65;;;;;;;17.23;64.97;99785.38;6320208;22;20023;-79
2021/03/13 19:07:19;;;;;;;15.40;4.20;;;;;;;17.20;65.06;99782.00;6318201;22;20041;-79
2021/03/13 19:09:44;;;;;;;15.32;4.20;;;;;;;17.19;65.06;99794.16;6293617;22;20030;-79
2021/03/13 19:12:17;;;;;;;10.80;3.33;;;;;;;17.20;64.89;99797.59;6321443;22;19996;-80
2021/03/13 19:14:42;;;;;;;14.52;3.97;;;;;;;17.20;64.77;99805.41;6317356;22;19999;-79
2021/03/13 19:17:08;;;;;;;11.32;3.53;;;;;;;17.17;64.78;99808.09;6288938;22;20008;-79
2021/03/13 19:19:33;;;;;;;14.68;4.10;;;;;;;17.16;65.05;99806.34;6317292;22;20589;-79
2021/03/13 19:21:59;;;;;;;14.15;3.45;;;;;;;17.18;64.83;99805.47;6265351;22;20027;-80
2021/03/13 19:24:27;;;;;;;9.70;2.97;;;;;;;17.14;64.83;99818.56;6319930;22;20034;-79
2021/03/13 19:26:52;;;;;;;12.02;3.10;;;;;;;17.13;64.83;99814.25;6293242;22;20018;-79
2021/03/13 19:29:17;;;;;;;7.93;3.25;;;;;;;17.13;64.94;99815.09;6291903;22;20003;-80
2021/03/13 19:31:43;;;;;;;9.63;3.20;;;;;;;17.13;64.49;99833.28;6318302;22;20064;-79
2021/03/13 19:34:10;;;;;;;8.77;2.95;;;;;;;17.15;64.68;99830.66;6241879;22;20007;-79
2021/03/13 19:36:35;;;;;;;7.72;3.05;;;;;;;17.14;64.75;99826.38;6292968;22;20007;-79
2021/03/13 19:39:01;;;;;;;12.73;3.30;;;;;;;17.14;64.67;99828.97;6294719;22;20063;-79
2021/03/13 19:41:33;;;;;;;10.52;2.88;;;;;;;17.12;64.89;99828.16;6293691;22;19995;-79
2021/03/13 19:43:59;;;;;;;11.23;2.92;;;;;;;17.12;64.77;99835.94;6293204;22;20059;-79
2021/03/13 19:46:30;;;;;;;14.05;3.47;;;;;;;17.11;64.60;99842.03;6321607;22;20429;-79
2021/03/13 19:48:57;;;;;;;9.65;3.00;;;;;;;17.12;64.83;99846.34;6297435;22;20000;-80
2021/03/13 19:51:25;;;;;;;10.13;3.05;;;;;;;17.10;64.85;99845.53;6297244;22;20015;-79
2021/03/13 19:53:56;;;;;;;8.60;2.95;;;;;;;17.09;64.59;99849.84;6295744;22;20055;-79
2021/03/13 19:56:25;;;;;;;11.30;3.25;;;;;;;17.11;64.82;99858.47;6322375;22;20034;-79
2021/03/13 19:58:51;;;;;;;9.68;2.58;;;;;;;17.10;64.51;99861.13;6296608;22;20009;-79
2021/03/13 20:01:24;;;;;;;16.75;2.95;;;;;;;17.11;64.38;99870.59;6294697;22;20438;-79
2021/03/13 20:03:58;;;;;;;8.23;2.87;;;;;;;17.09;64.38;99865.44;6320615;22;19995;-79
2021/03/13 20:06:23;;;;;;;7.50;2.58;;;;;;;17.10;64.35;99871.53;6320902;22;20053;-79
2021/03/13 20:09:06;;;;;;;8.05;2.85;;;;;;;17.10;64.28;99868.91;6322952;22;20003;-79
2021/03/13 20:11:32;;;;;;;12.60;2.70;;;;;;;17.09;64.34;99878.44;6321497;22;19996;-79
2021/03/13 20:13:58;;;;;;;7.55;2.65;;;;;;;17.10;64.44;99884.50;6321944;22;20007;-79
2021/03/13 20:16:29;;;;;;;9.50;2.40;;;;;;;17.09;64.72;99888.84;6293929;22;20004;-79
2021/03/13 20:18:59;;;;;;;8.07;2.60;;;;;;;17.09;64.18;99894.03;6320814;22;20007;-79
2021/03/13 20:21:26;;;;;;;7.00;2.60;;;;;;;17.08;64.36;99897.53;6294586;22;20003;-79
2021/03/13 20:23:53;;;;;;;6.53;2.40;;;;;;;17.09;64.10;99898.38;6319389;22;20006;-80
2021/03/13 20:26:26;;;;;;;7.38;2.25;;;;;;;17.09;64.11;99901.84;6319372;22;20002;-82
2021/03/13 20:29:01;;;;;;;4.97;2.47;;;;;;;17.09;63.83;99898.38;6292137;22;20014;-79
2021/03/13 20:31:45;;;;;;;6.80;2.35;;;;;;;17.12;63.83;99906.13;6299817;22;20004;-79
2021/03/13 20:34:30;;;;;;;8.02;2.35;;;;;;;17.12;63.90;99906.13;6298862;22;20438;-82
2021/03/13 20:37:04;;;;;;;8.10;2.25;;;;;;;17.10;63.85;99916.56;6302080;22;20041;-79
2021/03/13 20:39:37;;;;;;;8.60;2.28;;;;;;;17.11;63.96;99925.19;6330293;22;20003;-80
2021/03/13 20:42:04;;;;;;;5.43;2.08;;;;;;;17.11;63.61;99920.00;6271125;22;20450;-80
2021/03/13 20:44:36;;;;;;;5.95;2.58;;;;;;;17.11;64.02;99927.81;6301613;22;20057;-80
2021/03/13 20:47:03;;;;;;;7.13;2.08;;;;;;;17.12;63.88;99924.34;6262306;22;20032;-79
2021/03/13 20:49:36;;;;;;;5.57;2.05;;;;;;;17.11;63.70;99931.25;6234907;23;20009;-80
2021/03/13 20:52:07;;;;;;;;;;;;;;;17.11;63.87;99938.19;6236877;23;20064;-80
2021/03/13 20:54:35;;;;;;;6.93;2.40;;;;;;;17.10;63.73;99941.69;6241954;23;19912;-80
2021/03/13 20:57:11;;;;;;;7.18;2.10;;;;;;;17.10;63.76;99946.91;6243114;23;20008;-81
2021/03/13 21:00:17;;;;;;;5.50;1.80;;;;;;;17.11;64.02;99948.59;6242578;23;20008;-80
2021/03/13 21:06:08;;;;;;;5.75;2.28;;;;;;;17.10;63.73;99958.16;6238811;22;20028;-80
2021/03/13 21:09:06;;;;;;;4.03;1.90;;;;;;;17.11;63.80;99966.78;6203420;22;20008;-81
2021/03/13 21:11:44;;;;;;;9.05;2.50;;;;;;;17.08;63.52;99964.28;6214921;23;20000;-82
2021/03/13 21:20:58;;;;;;;5.03;1.65;;;;;;;17.08;63.30;99983.31;6237663;22;20031;-79
2021/03/13 21:24:04;;;;;;;4.88;1.70;;;;;;;17.07;63.38;99981.59;6206792;23;20044;-80
2021/03/13 21:29:28;;;;;;;7.28;2.00;;;;;;;17.08;63.39;99992.88;6237963;22;20020;-81
2021/03/13 21:32:18;;;;;;;4.13;1.63;;;;;;;17.09;63.50;99987.63;6237233;23;20024;-80
2021/03/13 21:34:58;;;;;;;5.47;2.00;;;;;;;17.09;63.32;99997.16;6236931;22;20000;-80
2021/03/13 21:37:28;;;;;;;9.27;2.00;;;;;;;17.06;63.18;99996.34;6211571;23;20024;-80
2021/03/13 21:39:56;;;;;;;4.63;1.50;;;;;;;17.05;63.19;99997.25;6212198;23;20069;-80
2021/03/13 21:45:30;;;;;;;5.68;1.92;;;;;;;17.11;63.39;100016.19;6232208;22;20096;-81
2021/03/13 21:51:01;;;;;;;7.22;1.63;;;;;;;17.06;62.95;100014.53;6253676;23;20330;-81
2021/03/13 21:53:29;;;;;;;3.20;1.50;;;;;;;17.10;63.13;100030.09;6192090;22;20005;-80
2021/03/13 21:55:58;;;;;;;5.88;1.65;;;;;;;17.08;62.90;100029.25;6160477;23;20040;-81
2021/03/13 21:58:30;;;;;;;6.07;1.55;;;;;;;17.05;63.24;100028.44;6208597;23;20016;-81
2021/03/13 22:00:58;;;;;;;6.07;1.65;;;;;;;17.06;63.21;100030.13;6186242;23;20005;-81
2021/03/13 22:03:25;;;;;;;4.13;1.67;;;;;;;17.09;62.76;100041.34;6207682;22;20016;-80
2021/03/13 22:06:14;;;;;;;4.35;1.50;;;;;;;17.08;62.90;100050.06;6206950;23;20025;-80
2021/03/13 22:08:51;;;;;;;4.60;1.75;;;;;;;17.06;62.93;100040.53;6180335;23;20021;-80
2021/03/13 22:12:05;;;;;;;6.82;1.80;;;;;;;17.09;62.90;100052.59;6180234;23;20005;-81
2021/03/13 22:14:53;;;;;;;3.97;1.80;;;;;;;17.04;62.95;100050.09;6150114;23;20018;-80
2021/03/13 22:17:29;;;;;;;3.88;1.50;;;;;;;17.05;63.06;100056.19;6183334;22;20021;-79
2021/03/13 22:19:55;;;;;;;2.60;1.40;;;;;;;17.07;62.90;100067.38;6241430;23;20115;-79
2021/03/13 22:22:38;;;;;;;3.28;1.50;;;;;;;17.08;62.84;100065.66;6215573;23;20012;-79
2021/03/13 22:25:45;;;;;;;3.75;1.40;;;;;;;17.08;62.98;100063.06;6241764;23;20079;-81
2021/03/13 22:36:33;;;;;;;4.50;1.50;;;;;;;17.06;62.68;100076.91;6240060;22;20080;-81
2021/03/13 22:39:32;;;;;;;5.00;1.80;;;;;;;17.06;62.63;100087.31;6200423;23;20016;-80
2021/03/13 22:42:10;;;;;;;5.05;1.55;;;;;;;17.04;63.76;100091.69;6242217;23;20004;-80
2021/03/13 22:44:40;;;;;;;4.72;1.77;;;;;;;16.95;63.59;100084.06;6244650;23;20012;-80
2021/03/13 22:47:22;;;;;;;5.30;1.80;;;;;;;16.86;63.40;100086.84;6225501;23;19995;-80
2021/03/13 22:52:26;;;;;;;6.35;1.60;;;;;;;16.85;62.49;100082.53;6241631;22;20025;-80
2021/03/13 22:55:34;;;;;;;6.97;1.52;;;;;;;16.88;62.34;100092.03;6241759;23;20075;-80
2021/03/13 22:58:04;;;;;;;6.65;1.70;;;;;;;16.87;62.54;100091.16;6216471;23;20067;-81
2021/03/13 23:01:12;;;;;;;4.00;1.40;;;;;;;16.89;62.03;100097.19;6241290;23;20047;-80
2021/03/13 23:03:38;;;;;;;3.95;1.60;;;;;;;16.85;62.16;100098.13;6216079;23;20028;-80
2021/03/13 23:06:42;;;;;;;8.52;1.48;;;;;;;16.86;62.31;100102.44;6200011;23;20021;-81
2021/03/13 23:09:23;;;;;;;5.13;1.45;;;;;;;16.85;62.11;100100.72;6209625;23;20020;-80
2021/03/13 23:14:24;;;;;;;5.28;1.80;;;;;;;16.83;62.13;100108.56;6220340;22;20024;-80
2021/03/13 23:20:51;;;;;;;5.43;1.52;;;;;;;16.85;61.75;100121.50;6241582;23;20024;-80
2021/03/13 23:57:46;;;;;;;4.18;1.15;;;;;;;16.79;61.83;100158.84;6237032;22;20053;-80
